• Join FlightAware (Why Join?)
  • Login
  • US Flag 
03:20PM EST


 

Airport Tracker/Info


-or-


 

Live Flight TrackerFlight Track Log ✈ N242SG ✈ 03-May-2012 ✈ KPIT - KBGM

Flight Track Log - Related Links

Times and Time Zones

All times are in EDT time to prevent confusion due to time zone crossing. See the N242SG flight status page for this flight to view local times or setup timezone preferences in your user account.

Time Position Orientation Groundspeed Altitude Reporting Facility
EDT Latitude Longitude Course Direction KTS MPH feet Rate Location/Type
07:10AM 40.5359 -80.1393 315° West  Level FlightAware Approximate
07:11AM 40.5714 -80.0643 290° West  Level FlightAware Approximate
07:12AM 40.6253 -80.2575 32° Northeast 166 191 6,200  Level Cleveland Center
07:13AM 40.6586 -80.2300 65° Northeast 156 180 7,600 1,320 Climbing Cleveland Center
07:14AM 40.6814 -80.1642 62° Northeast 153 176 8,900 1,260 Climbing Cleveland Center
07:15AM 40.7042 -80.1067 61° Northeast 171 197 10,200 1,020 Climbing Cleveland Center
07:16AM 40.7331 -80.0378 62° Northeast 186 214 11,000 360 Climbing Cleveland Center
07:17AM 40.7658 -79.9553 63° Northeast 208 239 11,000  Level Cleveland Center
07:18AM 40.7967 -79.8756 63° Northeast 228 262 11,000  Level Cleveland Center
07:19AM 40.8233 -79.8067 63° Northeast 233 268 11,000  Level Cleveland Center
07:20AM 40.8542 -79.7267 64° Northeast 233 268 11,000  Level Cleveland Center
07:21AM 40.8825 -79.6494 63° Northeast 233 268 11,000  Level Cleveland Center
07:22AM 40.9111 -79.5747 62° Northeast 233 268 11,000 3,960 Level Cleveland Center
07:23AM 40.9397 -79.5028 63° Northeast 228 262 19,000 1,020 Climbing Cleveland Center
07:24AM 40.9642 -79.4392 63° Northeast 209 241 13,100 -2,400 Descending Cleveland Center
07:25AM 40.9864 -79.3811 63° Northeast 192 221 14,300 1,140 Climbing Cleveland Center
07:26AM 41.0108 -79.3172 63° Northeast 181 208 15,400 1,020 Climbing Cleveland Center
07:27AM 41.0350 -79.2536 63° Northeast 181 208 16,400 900 Climbing Cleveland Center
07:28AM 41.0594 -79.1897 63° Northeast 181 208 17,300 780 Climbing Cleveland Center
07:29AM 41.0836 -79.1258 63° Northeast 181 208 18,000 780 Climbing Cleveland Center
07:30AM 41.1097 -79.0564 63° Northeast 186 214 18,900 480 Climbing Cleveland Center
07:31AM 41.1358 -78.9869 64° Northeast 199 229 19,000  Climbing Cleveland Center
07:32AM 41.1658 -78.9033 62° Northeast 220 253 19,000  Level Cleveland Center
07:33AM 41.1981 -78.8225 64° Northeast 234 269 19,000  Level Cleveland Center
07:34AM 41.2281 -78.7389 64° Northeast 241 277 19,000  Level Cleveland Center
07:35AM 41.2581 -78.6553 63° Northeast 241 277 19,000  Level Cleveland Center
07:36AM 41.2900 -78.5714 63° Northeast 241 277 19,000  Level Cleveland Center
07:37AM 41.3217 -78.4872 65° Northeast 241 277 19,000  Level Cleveland Center
07:38AM 41.3514 -78.4033 63° Northeast 241 277 19,000  Level Cleveland Center
07:39AM 41.3831 -78.3194 64° Northeast 241 277 19,000  Level Cleveland Center
07:40AM 41.4128 -78.2381 64° Northeast 241 277 19,000  Level Cleveland Center
07:41AM 41.4425 -78.1567 64° Northeast 241 277 19,000 -120 Level Cleveland Center
07:42AM 41.4719 -78.0750 64° Northeast 241 277 18,800 -420 Descending Cleveland Center
07:43AM 41.4917 -78.0219 65° Northeast 238 274 18,400 -600 Descending New York Center
07:44AM 41.5219 -77.9367 63° Northeast 249 287 17,900 -660 Descending New York Center
07:45AM 41.5542 -77.8514 63° Northeast 249 287 17,200 -420 Descending New York Center
07:46AM 41.5861 -77.7686 65° Northeast 249 287 17,100 -60 Descending New York Center
07:47AM 41.6136 -77.6911 66° East 249 287 17,100  Level New York Center
07:48AM 41.6411 -77.6078 64° Northeast 244 281 17,100  Level New York Center
07:49AM 41.6683 -77.5328 65° Northeast 238 274 17,100  Level New York Center
07:50AM 41.6958 -77.4550 63° Northeast 233 268 17,100 -60 Level New York Center
07:51AM 41.7250 -77.3772 65° Northeast 233 268 17,000 -60 Descending New York Center
07:52AM 41.7525 -77.2967 66° East 233 268 17,000 -360 Level New York Center
07:53AM 41.7797 -77.2158 62° Northeast 233 268 16,400 -600 Descending New York Center
07:54AM 41.8086 -77.1433 66° East 233 268 15,800 -660 Descending New York Center
07:55AM 41.8361 -77.0597 65° Northeast 238 274 15,100 -720 Descending New York Center
07:56AM 41.8631 -76.9814 65° Northeast 238 274 14,400 -720 Descending New York Center
07:57AM 41.8900 -76.9031 64° Northeast 233 268 13,700 -900 Descending New York Center
07:58AM 41.9192 -76.8222 65° Northeast 233 268 12,700 -1,020 Descending New York Center
07:59AM 41.9461 -76.7439 66° East 233 268 11,700 -1,020 Descending New York Center
08:00AM 41.9731 -76.6625 64° Northeast 233 268 10,700 -1,020 Descending New York Center
08:01AM 42.0019 -76.5814 64° Northeast 233 268 9,700 -840 Descending New York Center
08:02AM 42.0356 -76.4867 65° Northeast 238 274 9,000 -780 Descending New York Center
08:03AM 42.0647 -76.4025 71° East 243 280 8,200 -1,020 Descending New York Center
08:04AM 42.0878 -76.3122 121° Southeast 250 288 7,100 -1,260 Descending New York Center
08:05AM 42.0481 -76.2225 120° Southeast 238 274 5,700 -1,440 Descending New York Center
08:06AM 42.0122 -76.1383 115° Southeast 247 284 4,200 -900 Descending New York Center
08:07AM 41.9864 -76.0639 89° East 235 270 4,000 -120 Descending New York Center
08:08AM 41.9869 -76.0053 79° East 189 217 4,000  Level New York Center
08:09AM 41.9961 -75.9392 76° East 176 203 4,000  Level New York Center
08:10AM 42.0100 -75.8619 26° Northeast 182 209 4,000  Level New York Center
08:11AM 42.0442 -75.8394 10° North 141 162 4,000  Level New York Center
08:12AM 42.0800 -75.8311 319° Northwest 129 148 4,000  Level New York Center
08:19AM 42.4180 -76.2237 139° Southeast  Level Estimated
08:20AM 42.2000 -75.9667 312° West  Level FlightAware Approximate
08:21AM 42.2414 -76.0299 131° Southeast  Level Estimated
08:22AM 42.2000 -75.9667 312° West  Level FlightAware Approximate
08:23AM 42.2414 -76.0299 131° Southeast  Level Estimated
08:24AM 42.2000 -75.9667 131° Southeast  Level FlightAware Approximate